LICBLIBD

Guest
Details From LICB - Magliocco
To LIBD - Bari Palese Macchie
Flight Number -
Tags generated
Created
Modified
Stats Distance 270 nm / 500 km
Max Altitude 35,000 ft / 10,668 m
Waypoints 5
Social Downloads 0
Likes 0
Share VATSIM

Download

Looking for another format? Having issues loading an existing format? Contact us
Advertisement - Login to hide

Notes

Basic altitude profile: - Ascent Rate: 2500ft/min - Ascent Speed: 250kts - Cruise Altitude: 35000ft - Cruise Speed: 420kts - Descent Rate: 1500ft/min - Descent Speed: 250kts Options: - Use NATs: yes - Use PACOTS: yes - Use low airways: no - Use high airways: yes

Route

LICB PIGER SOVEX PAOLA LIBD

ID Type Via Altitude Latitude Longitude Leg Dist Tot Dist Heading (true) Name
O LICB APT - 0 ft / 0 m 36.99403˚ 14.60627˚ - 0 nm - Magliocco
PIGER FIX - 35,000 ft / 10,668 m 38.54861˚ 15.40611˚ 100 nm 100 nm 22° / 22° -
SOVEX FIX - 29,500 ft / 8,992 m 38.99028˚ 15.49111˚ 26 nm 127 nm 9° / 9° -
PAOLA FIX - 19,800 ft / 6,035 m 39.61500˚ 16.03917˚ 45 nm 172 nm 34° / 34° -
O LIBD APT - 0 ft / 0 m 41.13787˚ 16.75832˚ 97 nm 270 nm 20° / 20° Bari Palese Macchie

Altitude Profile

Advertisement - Login to hide

Weather


0- 5 10 15 20 25 30 35+ Temperature / ° C

Clouds and Precipitation
Forecast for 2017-12-17 12:00 UTC. Updated an hour ago

Ground ~20,000 ft ~40,000 ft Winds

LICB

Details ICAO LICB
Name Magliocco
Region Italy
Timezone Europe/Rome (UTC+1.0)
Stats Elevation 757 ft / 231 m (AMSL)
Location 36.994031° 14.606274°
Runways 1
Magnetic Variation 3.115° E

METAR

LICB 170950Z 30008KT CAVOK 11/03 Q1017

Decode

TAF

Not found

Departure Runways

ID Width Length Bearing (true) Bearing (mag) Surface Threshold Offset Overrun Length
05 147 ft / 45 m 8,334 ft / 2,540 m 49.99° 46.88° Asphalt 196 ft / 60 m 452 ft / 138 m
23 147 ft / 45 m 8,334 ft / 2,540 m 230.01° 226.90° Asphalt 0 ft / 0 m 0 ft / 0 m

LIBD

Details ICAO LIBD (BRI)
Name Bari Palese Macchie
Region Italy
Timezone Europe/Rome (UTC+1.0)
Stats Elevation 177 ft / 54 m (AMSL)
Location 41.137865° 16.758318°
Runways 1
Magnetic Variation 3.738° E

METAR

LIBD 171020Z 29016G26KT 9999 FEW035 09/04 Q1011

Decode

TAF

TAF LIBD 170500Z 1706/1806 30010KT 9999 SCT030 BECMG 1706/1708 30015G25KT TEMPO 1721/1724 RA

Decode

Destination Runways

ID Width Length Bearing (true) Bearing (mag) Surface Threshold Offset Overrun Length
07 148 ft / 45 m 9,262 ft / 2,823 m 69.39° 65.65° Asphalt 1,257 ft / 383 m 0 ft / 0 m
25 148 ft / 45 m 9,262 ft / 2,823 m 249.42° 245.68° Asphalt 0 ft / 0 m 194 ft / 59 m

Approach Navaids

Runway Type Ident Frequency Range Bearing (true) Bearing (mag) Slope Elevation
07 Localiser BAP 111.35 MHz 18 nm / 33 km 69.25° 65.51° - 177 ft / 54 m (AMSL)
07 Glidescope BAP 111.35 MHz 10 nm / 19 km 69.25° 65.51° 3.32° 177 ft / 54 m (AMSL)
07 DME BAP 111.35 MHz 18 nm / 33 km - - - 183 ft / 56 m (AMSL)